KTYS/TYS METAR and TAF weather

Enter ICAO airport designator
Station Type Date Time Source
KTYS METAR 2019/12/08 10:53 UTC NOAA

KTYS 081053Z 00000KT 9SM CLR 02/01 A3027 RMK AO2 SLP251 T00220006


Station Type Date Time Source
KTYS Decoded METAR 2019/12/08 10:53 UTC NOAA

MCGHEE TYSON AIRPORT, TN, United States (KTYS) 35-49N 083-59W 302M
Dec 08, 2019 - 05:53 AM EST / 2019.12.08 1053 UTC
Wind: Calm:0
Visibility: 9 mile(s):0
Sky conditions: clear
Temperature: 36.0 F (2.2 C)
Dew Point: 33.1 F (0.6 C)
Relative Humidity: 89%
Pressure (altimeter): 30.27 in. Hg (1025 hPa)
ob: KTYS 081053Z 00000KT 9SM CLR 02/01 A3027 RMK AO2 SLP251 T00220006
cycle: 11

Station Type Date Time Source
KTYS TAF 2019/12/08 12:27 UTC NOAA

TAF KTYS 081125Z 0812/0912 VRB03KT P6SM SCT200
FM081500 04005KT P6SM SCT060 BKN250
FM081900 19009KT P6SM BKN060
FM090100 19007KT P6SM BKN050

Example: see airport list